Time;durP1;ratioP1;P1;durP2;ratioP2;P2;SDS_P1;SDS_P2;PMS_P1;PMS_P2;Temp;Humidity;BMP_temperature;BMP_pressure;BME280_temperature;BME280_humidity;BME280_pressure;Samples;Min_cycle;Max_cycle;Signal;HPM_P1;HPM_P2
2024/01/17 00:01:57;;;;;;;12.65;6.47;;;;;;;;;;5111209;28;19919;-85
2024/01/17 00:04:24;;;;;;;18.45;7.00;;;;;;;;;;5111854;28;20173;-90
2024/01/17 00:06:50;;;;;;;17.52;6.63;;;;;;;;;;5094812;28;20096;-89
2024/01/17 00:09:16;;;;;;;;;;;;;;;;;;5092410;28;20055;-89
2024/01/17 00:11:42;;;;;;;16.42;6.53;;;;;;;;;;5105372;28;20274;-89
2024/01/17 00:14:08;;;;;;;;;;;;;;;;;;5106974;28;20431;-87
2024/01/17 00:16:34;;;;;;;15.25;6.50;;;;;;;;;;5092717;28;19919;-90
2024/01/17 00:19:00;;;;;;;;;;;;;;;;;;5095062;28;20122;-85
2024/01/17 00:21:26;;;;;;;16.90;7.40;;;;;;;;;;5110558;28;20045;-89
2024/01/17 00:23:52;;;;;;;16.38;7.10;;;;;;;;;;5094608;28;20112;-89
2024/01/17 00:26:18;;;;;;;;;;;;;;;;;;5110608;28;20043;-90
2024/01/17 00:28:44;;;;;;;17.95;7.30;;;;;;;;;;5092135;28;19919;-90
2024/01/17 00:31:10;;;;;;;;;;;;;;;;;;5093088;28;20048;-90
2024/01/17 00:33:36;;;;;;;20.70;7.50;;;;;;;;;;5125372;28;19920;-90
2024/01/17 00:36:02;;;;;;;;;;;;;;;;;;5076591;28;20040;-87
2024/01/17 00:38:29;;;;;;;19.00;7.85;;;;;;;;;;5094033;28;19954;-89
2024/01/17 00:40:55;;;;;;;16.85;8.15;;;;;;;;;;5111957;28;20080;-90
2024/01/17 00:43:21;;;;;;;;;;;;;;;;;;5093740;28;20512;-90
2024/01/17 00:45:47;;;;;;;17.70;7.85;;;;;;;;;;5111339;28;19923;-90
2024/01/17 00:48:18;;;;;;;;;;;;;;;;;;5097731;28;20096;-88
2024/01/17 00:50:44;;;;;;;19.85;7.32;;;;;;;;;;5095539;28;19919;-90
2024/01/17 00:53:10;;;;;;;;;;;;;;;;;;5097821;28;20362;-88
2024/01/17 00:55:36;;;;;;;16.15;7.68;;;;;;;;;;5097696;28;20319;-89
2024/01/17 00:58:02;;;;;;;;;;;;;;;;;;5097784;28;20108;-88
2024/01/17 01:00:28;;;;;;;22.50;8.45;;;;;;;;;;5092852;28;19928;-90
2024/01/17 01:02:55;;;;;;;16.08;8.27;;;;;;;;;;5095265;28;20051;-89
2024/01/17 01:05:20;;;;;;;;;;;;;;;;;;5078087;28;20051;-89
2024/01/17 01:07:47;;;;;;;19.83;7.70;;;;;;;;;;5128509;27;20015;-86
2024/01/17 01:10:13;;;;;;;18.88;8.50;;;;;;;;;;5076599;28;20051;-89
2024/01/17 01:12:40;;;;;;;16.48;7.90;;;;;;;;;;5093652;28;20047;-88
2024/01/17 01:15:06;;;;;;;16.60;8.45;;;;;;;;;;5093916;28;20050;-89
2024/01/17 01:17:32;;;;;;;17.88;8.25;;;;;;;;;;5094120;28;20060;-89
2024/01/17 01:19:58;;;;;;;19.27;8.93;;;;;;;;;;5103860;28;20419;-90
2024/01/17 01:22:24;;;;;;;;;;;;;;;;;;5098125;28;20150;-89
2024/01/17 01:24:50;;;;;;;20.70;9.07;;;;;;;;;;5114945;28;20376;-88
2024/01/17 01:27:16;;;;;;;19.17;9.48;;;;;;;;;;5097306;28;20055;-89
2024/01/17 01:29:42;;;;;;;;;;;;;;;;;;5060260;28;20052;-87
2024/01/17 01:32:08;;;;;;;20.90;10.90;;;;;;;;;;5111383;28;19927;-88
2024/01/17 01:34:34;;;;;;;;;;;;;;;;;;5067281;28;20043;-90
2024/01/17 01:37:00;;;;;;;21.58;9.85;;;;;;;;;;5109595;28;19942;-90
2024/01/17 01:39:27;;;;;;;21.25;9.70;;;;;;;;;;5093359;28;20050;-90
2024/01/17 01:41:53;;;;;;;20.13;10.52;;;;;;;;;;5096562;28;20036;-89
2024/01/17 01:44:19;;;;;;;;;;;;;;;;;;5077291;28;20055;-90
2024/01/17 01:46:46;;;;;;;21.90;11.13;;;;;;;;;;5110818;28;19920;-90
2024/01/17 01:49:13;;;;;;;21.17;11.18;;;;;;;;;;5077478;28;20048;-90
2024/01/17 01:51:39;;;;;;;27.38;12.65;;;;;;;;;;5093872;28;20054;-91
2024/01/17 01:54:06;;;;;;;22.75;10.50;;;;;;;;;;5084335;28;20057;-89
2024/01/17 01:56:33;;;;;;;24.50;10.10;;;;;;;;;;5096370;28;20040;-90
2024/01/17 01:59:00;;;;;;;23.40;11.38;;;;;;;;;;5091943;28;20096;-90
2024/01/17 02:01:27;;;;;;;24.67;11.25;;;;;;;;;;5112814;27;20087;-90
2024/01/17 02:03:54;;;;;;;21.38;10.55;;;;;;;;;;5128131;27;20135;-90
2024/01/17 02:06:21;;;;;;;23.17;10.23;;;;;;;;;;5093360;28;20048;-90
2024/01/17 02:08:47;;;;;;;24.35;11.70;;;;;;;;;;5076585;28;20139;-87
2024/01/17 02:11:13;;;;;;;23.60;10.82;;;;;;;;;;5093880;28;20090;-90
2024/01/17 02:13:40;;;;;;;23.67;10.60;;;;;;;;;;5126045;27;20048;-89
2024/01/17 02:16:06;;;;;;;20.08;11.07;;;;;;;;;;5075314;28;20505;-90
2024/01/17 02:18:32;;;;;;;;;;;;;;;;;;5076489;28;20052;-89
2024/01/17 02:20:58;;;;;;;26.08;11.18;;;;;;;;;;5102257;28;19926;-90
2024/01/17 02:23:24;;;;;;;;;;;;;;;;;;5113557;28;20044;-89
2024/01/17 02:25:51;;;;;;;21.40;10.07;;;;;;;;;;5113590;28;19968;-90
2024/01/17 02:28:17;;;;;;;20.83;10.48;;;;;;;;;;5112520;28;20043;-90
2024/01/17 02:30:43;;;;;;;;;;;;;;;;;;5113065;28;20070;-90
2024/01/17 02:33:09;;;;;;;18.05;8.85;;;;;;;;;;5096905;28;19920;-90
2024/01/17 02:35:35;;;;;;;;;;;;;;;;;;5112261;28;20039;-90
2024/01/17 02:38:01;;;;;;;23.92;10.73;;;;;;;;;;5093563;28;20002;-88
2024/01/17 02:40:27;;;;;;;;;;;;;;;;;;5109856;28;20040;-89
2024/01/17 02:42:54;;;;;;;20.58;10.45;;;;;;;;;;5103513;28;19974;-88
2024/01/17 02:45:20;;;;;;;18.40;9.93;;;;;;;;;;5109573;28;20139;-89
2024/01/17 02:47:46;;;;;;;;;;;;;;;;;;5075417;28;20051;-89
2024/01/17 02:50:14;;;;;;;19.23;8.68;;;;;;;;;;5126324;27;19926;-90
2024/01/17 02:52:47;;;;;;;17.73;9.13;;;;;;;;;;5075726;28;20170;-90
2024/01/17 02:55:15;;;;;;;20.40;9.95;;;;;;;;;;5092826;28;20051;-89
2024/01/17 02:57:42;;;;;;;21.65;10.30;;;;;;;;;;5074523;28;20495;-90
2024/01/17 03:00:09;;;;;;;16.60;9.52;;;;;;;;;;5094278;28;20044;-89
2024/01/17 03:02:35;;;;;;;23.27;10.30;;;;;;;;;;5112899;28;20043;-90
2024/01/17 03:05:01;;;;;;;20.50;9.88;;;;;;;;;;5096280;28;20043;-90
2024/01/17 03:07:27;;;;;;;19.50;9.57;;;;;;;;;;5112545;28;20055;-88
2024/01/17 03:09:53;;;;;;;;;;;;;;;;;;5095833;28;20096;-90
2024/01/17 03:12:20;;;;;;;21.25;9.48;;;;;;;;;;5093876;28;19920;-89
2024/01/17 03:14:46;;;;;;;19.52;10.70;;;;;;;;;;5074083;28;20421;-89
2024/01/17 03:17:15;;;;;;;20.58;9.75;;;;;;;;;;5076014;28;20109;-90
2024/01/17 03:19:45;;;;;;;17.48;8.90;;;;;;;;;;5102013;28;20043;-89
2024/01/17 03:22:11;;;;;;;19.02;9.63;;;;;;;;;;5095646;28;20104;-90
2024/01/17 03:24:37;;;;;;;;;;;;;;;;;;5104857;28;20052;-91
2024/01/17 03:27:04;;;;;;;20.40;9.52;;;;;;;;;;5075160;28;20365;-89
2024/01/17 03:29:30;;;;;;;18.10;9.88;;;;;;;;;;5107848;28;20043;-86
2024/01/17 03:31:56;;;;;;;;;;;;;;;;;;5092289;28;20084;-89
2024/01/17 03:34:22;;;;;;;25.02;9.02;;;;;;;;;;5092577;28;19927;-90
2024/01/17 03:36:48;;;;;;;;;;;;;;;;;;5091800;28;20043;-88
2024/01/17 03:39:14;;;;;;;21.00;10.07;;;;;;;;;;5075301;28;19920;-89
2024/01/17 03:41:40;;;;;;;;;;;;;;;;;;5102777;28;20090;-90
2024/01/17 03:44:06;;;;;;;18.27;8.18;;;;;;;;;;5091508;28;20548;-90
2024/01/17 03:46:32;;;;;;;20.38;9.15;;;;;;;;;;5057621;28;20607;-89
2024/01/17 03:48:59;;;;;;;;;;;;;;;;;;5093075;28;20126;-89
2024/01/17 03:51:25;;;;;;;18.08;8.90;;;;;;;;;;5095257;28;19930;-90
2024/01/17 03:53:51;;;;;;;;;;;;;;;;;;5080399;28;20055;-89
2024/01/17 03:56:17;;;;;;;18.13;8.75;;;;;;;;;;5108737;28;19920;-89
2024/01/17 03:58:43;;;;;;;;;;;;;;;;;;5074569;28;20127;-89
2024/01/17 04:01:10;;;;;;;17.38;9.38;;;;;;;;;;5108573;28;19955;-89
2024/01/17 04:03:37;;;;;;;18.20;9.90;;;;;;;;;;5074909;28;20370;-90
2024/01/17 04:06:03;;;;;;;17.40;9.18;;;;;;;;;;5058802;28;20044;-90
2024/01/17 04:08:29;;;;;;;19.10;8.30;;;;;;;;;;5058324;28;20117;-89
2024/01/17 04:10:55;;;;;;;16.48;8.85;;;;;;;;;;5082398;28;20043;-89
2024/01/17 04:13:21;;;;;;;16.20;8.15;;;;;;;;;;5081536;28;20143;-89
2024/01/17 04:15:47;;;;;;;;;;;;;;;;;;5075025;28;20044;-89
2024/01/17 04:18:13;;;;;;;17.48;8.77;;;;;;;;;;5126273;28;19920;-89
2024/01/17 04:20:39;;;;;;;;;;;;;;;;;;5075235;28;20044;-89
2024/01/17 04:23:05;;;;;;;16.15;8.68;;;;;;;;;;5111626;28;19924;-89
2024/01/17 04:25:31;;;;;;;;;;;;;;;;;;5084097;28;20077;-89
2024/01/17 04:27:57;;;;;;;19.05;8.90;;;;;;;;;;5098286;28;19946;-89
2024/01/17 04:30:24;;;;;;;;;;;;;;;;;;5099505;28;20043;-89
2024/01/17 04:32:50;;;;;;;20.63;8.13;;;;;;;;;;5094186;28;19957;-89
2024/01/17 04:35:20;;;;;;;17.58;9.35;;;;;;;;;;5095595;28;20052;-89
2024/01/17 04:37:46;;;;;;;19.02;9.88;;;;;;;;;;5078371;28;20120;-89
2024/01/17 04:40:13;;;;;;;17.58;9.48;;;;;;;;;;5079066;28;20044;-90
2024/01/17 04:42:39;;;;;;;17.13;8.80;;;;;;;;;;5078124;28;20673;-89
2024/01/17 04:45:05;;;;;;;18.52;9.68;;;;;;;;;;5078637;28;20760;-89
2024/01/17 04:47:32;;;;;;;18.65;9.20;;;;;;;;;;5079019;28;20105;-89
2024/01/17 04:49:58;;;;;;;17.63;8.98;;;;;;;;;;5095476;28;20073;-89
2024/01/17 04:52:24;;;;;;;;;;;;;;;;;;5080025;28;20040;-88
2024/01/17 04:54:50;;;;;;;20.95;8.85;;;;;;;;;;5078204;28;19927;-89
2024/01/17 04:57:16;;;;;;;;;;;;;;;;;;5062335;28;20542;-89
2024/01/17 04:59:45;;;;;;;14.20;7.32;;;;;;;;;;5094721;28;19920;-88
2024/01/17 05:02:11;;;;;;;18.80;8.43;;;;;;;;;;5062689;28;20047;-89
2024/01/17 05:04:37;;;;;;;;;;;;;;;;;;5062484;28;20496;-89
2024/01/17 05:07:03;;;;;;;18.50;7.70;;;;;;;;;;5078593;28;19920;-89
2024/01/17 05:09:29;;;;;;;14.73;8.23;;;;;;;;;;5077808;28;20056;-89
2024/01/17 05:11:58;;;;;;;17.27;8.60;;;;;;;;;;5061234;28;20052;-89
2024/01/17 05:14:24;;;;;;;17.00;8.25;;;;;;;;;;5077620;28;20384;-89
2024/01/17 05:16:50;;;;;;;;;;;;;;;;;;5097301;28;20044;-88
2024/01/17 05:19:17;;;;;;;17.40;8.80;;;;;;;;;;5078088;28;19980;-88
2024/01/17 05:21:43;;;;;;;18.85;8.75;;;;;;;;;;5078010;28;20058;-89
2024/01/17 05:24:09;;;;;;;16.98;8.43;;;;;;;;;;5131162;27;20073;-89
2024/01/17 05:26:35;;;;;;;;;;;;;;;;;;5081994;28;20103;-89
2024/01/17 05:29:01;;;;;;;20.30;8.82;;;;;;;;;;5097576;28;19955;-88
2024/01/17 05:31:27;;;;;;;14.50;8.20;;;;;;;;;;5098394;28;20054;-88
2024/01/17 05:33:53;;;;;;;;;;;;;;;;;;5113919;28;20054;-88
2024/01/17 05:36:19;;;;;;;18.75;8.63;;;;;;;;;;5128791;27;19919;-89
2024/01/17 05:38:45;;;;;;;;;;;;;;;;;;5094524;28;20047;-88
2024/01/17 05:41:11;;;;;;;18.10;8.68;;;;;;;;;;5128677;27;19920;-89
2024/01/17 05:43:37;;;;;;;;;;;;;;;;;;5094671;28;20370;-87
2024/01/17 05:46:03;;;;;;;17.75;8.57;;;;;;;;;;5127965;27;19927;-87
2024/01/17 05:48:29;;;;;;;;;;;;;;;;;;5077639;28;20058;-87
2024/01/17 05:50:55;;;;;;;18.17;8.65;;;;;;;;;;5128190;27;20071;-87
2024/01/17 05:53:21;;;;;;;17.92;7.90;;;;;;;;;;5079917;28;20063;-88
2024/01/17 05:55:47;;;;;;;;;;;;;;;;;;5077563;28;20040;-88
2024/01/17 05:58:13;;;;;;;21.35;8.43;;;;;;;;;;5094097;28;20379;-88
2024/01/17 06:00:40;;;;;;;17.67;7.93;;;;;;;;;;5077031;28;20048;-88
2024/01/17 06:03:06;;;;;;;16.23;7.90;;;;;;;;;;5093523;28;20052;-87
2024/01/17 06:05:32;;;;;;;16.58;8.60;;;;;;;;;;5077075;28;20083;-87
2024/01/17 06:07:58;;;;;;;;;;;;;;;;;;5093978;28;20447;-87
2024/01/17 06:10:27;;;;;;;18.27;8.52;;;;;;;;;;5076554;28;19923;-87
2024/01/17 06:12:53;;;;;;;21.20;8.32;;;;;;;;;;5076637;28;20044;-87
2024/01/17 06:15:19;;;;;;;;;;;;;;;;;;5060554;28;20050;-88
2024/01/17 06:17:45;;;;;;;17.63;8.18;;;;;;;;;;5093311;28;19920;-90
2024/01/17 06:20:11;;;;;;;;;;;;;;;;;;5109268;28;20092;-87
2024/01/17 06:22:37;;;;;;;17.20;8.27;;;;;;;;;;5113867;28;19966;-88
2024/01/17 06:25:05;;;;;;;19.60;8.48;;;;;;;;;;5113553;27;20081;-87
2024/01/17 06:27:31;;;;;;;20.55;9.57;;;;;;;;;;5113692;28;20095;-87
2024/01/17 06:29:57;;;;;;;;;;;;;;;;;;5096723;28;20055;-87
2024/01/17 06:32:23;;;;;;;15.68;8.05;;;;;;;;;;5113873;28;20010;-88
2024/01/17 06:34:49;;;;;;;;;;;;;;;;;;5113464;28;20040;-88
2024/01/17 06:37:15;;;;;;;20.15;8.98;;;;;;;;;;5089830;28;19927;-87
2024/01/17 06:39:41;;;;;;;;;;;;;;;;;;5093476;28;20135;-87
2024/01/17 06:42:07;;;;;;;17.50;7.88;;;;;;;;;;5092410;28;19971;-86
2024/01/17 06:44:33;;;;;;;15.95;7.88;;;;;;;;;;5077509;28;20098;-86
2024/01/17 06:46:59;;;;;;;;;;;;;;;;;;5096281;28;20044;-87
2024/01/17 06:49:25;;;;;;;14.93;7.55;;;;;;;;;;5096110;28;19946;-87
2024/01/17 06:51:51;;;;;;;;;;;;;;;;;;5113363;28;20083;-88
2024/01/17 06:54:17;;;;;;;21.45;8.68;;;;;;;;;;5113236;28;19978;-85
2024/01/17 06:56:44;;;;;;;17.25;8.60;;;;;;;;;;5095850;28;20053;-87
2024/01/17 06:59:10;;;;;;;17.98;8.18;;;;;;;;;;5112291;28;20100;-86
2024/01/17 07:01:37;;;;;;;16.42;8.10;;;;;;;;;;5095876;28;20051;-86
2024/01/17 07:04:03;;;;;;;22.98;8.13;;;;;;;;;;5095089;28;20059;-85
2024/01/17 07:06:29;;;;;;;;;;;;;;;;;;5091744;28;20050;-86
2024/01/17 07:08:59;;;;;;;15.52;7.85;;;;;;;;;;5112174;28;20030;-86
2024/01/17 07:11:25;;;;;;;14.10;7.72;;;;;;;;;;5112904;28;20047;-87
2024/01/17 07:13:51;;;;;;;;;;;;;;;;;;5112869;28;20385;-90
2024/01/17 07:16:17;;;;;;;14.45;7.45;;;;;;;;;;5095365;28;19920;-87
2024/01/17 07:18:43;;;;;;;16.60;7.18;;;;;;;;;;5093406;28;20061;-86
2024/01/17 07:21:10;;;;;;;;;;;;;;;;;;5092404;28;20040;-86
2024/01/17 07:23:37;;;;;;;16.90;6.97;;;;;;;;;;5075321;28;19931;-87
2024/01/17 07:26:04;;;;;;;18.33;7.88;;;;;;;;;;5091728;28;20104;-85
2024/01/17 07:28:30;;;;;;;17.20;7.28;;;;;;;;;;5075198;28;20048;-86
2024/01/17 07:30:56;;;;;;;16.73;6.22;;;;;;;;;;5058339;28;20554;-86
2024/01/17 07:33:22;;;;;;;;;;;;;;;;;;5092714;28;20048;-85
2024/01/17 07:35:48;;;;;;;17.63;7.72;;;;;;;;;;5108620;28;19945;-86
2024/01/17 07:38:14;;;;;;;;;;;;;;;;;;5074678;28;20043;-89
2024/01/17 07:40:41;;;;;;;19.50;8.30;;;;;;;;;;5079653;28;19998;-86
2024/01/17 07:43:07;;;;;;;15.38;7.70;;;;;;;;;;5078834;28;20134;-91
2024/01/17 07:45:33;;;;;;;15.73;7.18;;;;;;;;;;5113340;28;20047;-90
2024/01/17 07:47:59;;;;;;;;;;;;;;;;;;5071298;28;20055;-89
2024/01/17 07:50:26;;;;;;;15.63;7.15;;;;;;;;;;5075407;28;20277;-87
2024/01/17 07:52:53;;;;;;;15.63;7.78;;;;;;;;;;5069611;28;20047;-89
2024/01/17 07:55:19;;;;;;;15.82;7.25;;;;;;;;;;5094850;28;20043;-86
2024/01/17 07:57:45;;;;;;;;;;;;;;;;;;5097673;28;20415;-86
2024/01/17 08:00:14;;;;;;;14.40;7.40;;;;;;;;;;5099142;28;19926;-85
2024/01/17 08:02:40;;;;;;;16.55;7.05;;;;;;;;;;5115910;27;20061;-85
2024/01/17 08:05:07;;;;;;;18.35;8.25;;;;;;;;;;5110946;28;20059;-85
2024/01/17 08:07:33;;;;;;;21.13;7.60;;;;;;;;;;5078795;28;20083;-85
2024/01/17 08:09:59;;;;;;;15.90;7.68;;;;;;;;;;5081699;28;20091;-90
2024/01/17 08:12:25;;;;;;;14.60;7.18;;;;;;;;;;5116383;27;20035;-85
2024/01/17 08:14:51;;;;;;;;;;;;;;;;;;5099342;28;20047;-85
2024/01/17 08:17:17;;;;;;;17.23;7.75;;;;;;;;;;5098438;28;20379;-85
2024/01/17 08:19:43;;;;;;;17.25;7.07;;;;;;;;;;5116372;27;20039;-85
2024/01/17 08:22:12;;;;;;;;;;;;;;;;;;5115965;28;20473;-85
2024/01/17 08:24:38;;;;;;;16.13;6.78;;;;;;;;;;5116027;28;19919;-84
2024/01/17 08:27:04;;;;;;;;;;;;;;;;;;5116021;28;20048;-84
2024/01/17 08:29:31;;;;;;;17.10;7.25;;;;;;;;;;5083612;28;19927;-84
2024/01/17 08:31:57;;;;;;;19.10;7.72;;;;;;;;;;5095683;28;20398;-86
2024/01/17 08:34:23;;;;;;;;;;;;;;;;;;5078903;28;20098;-84
2024/01/17 08:36:49;;;;;;;15.00;7.50;;;;;;;;;;5078455;28;20478;-84
2024/01/17 08:39:15;;;;;;;;;;;;;;;;;;5061943;28;20052;-85
2024/01/17 08:41:45;;;;;;;15.95;7.25;;;;;;;;;;5098890;28;19926;-85
2024/01/17 08:44:12;;;;;;;15.13;7.28;;;;;;;;;;5114774;28;20124;-84
2024/01/17 08:46:48;;;;;;;18.38;8.15;;;;;;;;;;5097875;28;20039;-84
2024/01/17 08:49:16;;;;;;;19.80;7.70;;;;;;;;;;5094115;28;20493;-82
2024/01/17 08:51:43;;;;;;;13.48;7.25;;;;;;;;;;5078254;28;20489;-82
2024/01/17 08:54:10;;;;;;;;;;;;;;;;;;5079975;28;20036;-87
2024/01/17 08:56:36;;;;;;;;;;;;;;;;;;5111970;28;20395;-86
2024/01/17 08:59:02;;;;;;;17.52;7.15;;;;;;;;;;5114579;27;19920;-85
2024/01/17 09:01:28;;;;;;;16.30;7.93;;;;;;;;;;5111459;27;20072;-83
2024/01/17 09:03:55;;;;;;;15.75;6.80;;;;;;;;;;5105721;27;20042;-85
2024/01/17 09:06:21;;;;;;;14.82;6.93;;;;;;;;;;5080669;28;20094;-85
2024/01/17 09:08:47;;;;;;;;;;;;;;;;;;5070545;28;20493;-85
2024/01/17 09:11:13;;;;;;;14.25;6.40;;;;;;;;;;5125128;27;19920;-85
2024/01/17 09:13:39;;;;;;;15.70;7.63;;;;;;;;;;5105032;28;20130;-85
2024/01/17 09:16:05;;;;;;;;;;;;;;;;;;5107183;28;20437;-85
2024/01/17 09:18:31;;;;;;;16.63;7.40;;;;;;;;;;5077194;28;19924;-86
2024/01/17 09:20:58;;;;;;;17.90;7.57;;;;;;;;;;5067702;28;20047;-84
2024/01/17 09:23:24;;;;;;;;;;;;;;;;;;5114073;28;20400;-85
2024/01/17 09:25:50;;;;;;;13.75;6.95;;;;;;;;;;5113716;28;19924;-86
2024/01/17 09:28:16;;;;;;;;;;;;;;;;;;5089722;28;20550;-85
2024/01/17 09:30:42;;;;;;;15.13;7.20;;;;;;;;;;5111609;27;19927;-86
2024/01/17 09:33:08;;;;;;;;;;;;;;;;;;5082596;28;20036;-83
2024/01/17 09:35:35;;;;;;;15.00;6.50;;;;;;;;;;5092379;28;19930;-84
2024/01/17 09:38:02;;;;;;;12.55;6.60;;;;;;;;;;5079992;28;20056;-88
2024/01/17 09:40:28;;;;;;;16.00;7.45;;;;;;;;;;5113505;28;20051;-84
2024/01/17 09:42:54;;;;;;;;;;;;;;;;;;5096278;28;20048;-89
2024/01/17 09:45:21;;;;;;;14.98;7.07;;;;;;;;;;5095573;28;19926;-83
2024/01/17 09:47:48;;;;;;;12.48;6.40;;;;;;;;;;5096679;28;20054;-84
2024/01/17 09:50:15;;;;;;;16.77;6.72;;;;;;;;;;5096361;28;20048;-89
2024/01/17 09:52:42;;;;;;;17.77;7.18;;;;;;;;;;5096220;28;20096;-86
2024/01/17 09:55:09;;;;;;;12.65;6.88;;;;;;;;;;5096809;28;20071;-83
2024/01/17 09:57:39;;;;;;;12.38;6.65;;;;;;;;;;5086751;28;20044;-85
2024/01/17 10:00:09;;;;;;;12.43;6.47;;;;;;;;;;5089415;28;20095;-83
2024/01/17 10:02:38;;;;;;;16.08;7.07;;;;;;;;;;5113035;28;20334;-83
2024/01/17 10:05:09;;;;;;;13.55;6.68;;;;;;;;;;5096240;28;20130;-84
2024/01/17 10:07:35;;;;;;;15.02;6.13;;;;;;;;;;5105016;28;20110;-88
2024/01/17 10:10:01;;;;;;;18.70;6.47;;;;;;;;;;5107761;28;20060;-83
2024/01/17 10:12:27;;;;;;;14.00;6.30;;;;;;;;;;5113128;28;20043;-89
2024/01/17 10:14:53;;;;;;;;;;;;;;;;;;5096041;28;20130;-84
2024/01/17 10:17:20;;;;;;;12.13;6.38;;;;;;;;;;5105578;28;20420;-89
2024/01/17 10:19:46;;;;;;;14.50;6.97;;;;;;;;;;5090287;28;20168;-84
2024/01/17 10:22:12;;;;;;;;;;;;;;;;;;5096522;28;20047;-84
2024/01/17 10:24:39;;;;;;;15.18;7.13;;;;;;;;;;5095266;28;19926;-83
2024/01/17 10:27:09;;;;;;;13.57;6.70;;;;;;;;;;5095558;28;20062;-89
2024/01/17 10:29:39;;;;;;;13.50;6.32;;;;;;;;;;5109143;28;20180;-86
2024/01/17 10:32:06;;;;;;;15.25;6.75;;;;;;;;;;5092787;28;20160;-83
2024/01/17 10:34:32;;;;;;;15.27;6.60;;;;;;;;;;5092154;28;20133;-85
2024/01/17 10:36:59;;;;;;;13.68;6.30;;;;;;;;;;5093253;28;20035;-86
2024/01/17 10:39:25;;;;;;;17.20;7.18;;;;;;;;;;5094820;28;20036;-85
2024/01/17 10:41:54;;;;;;;20.48;7.10;;;;;;;;;;5085097;28;20127;-86
2024/01/17 10:44:21;;;;;;;16.48;7.60;;;;;;;;;;5089107;28;20179;-86
2024/01/17 10:46:53;;;;;;;17.10;6.75;;;;;;;;;;5097719;28;20096;-87
2024/01/17 10:49:19;;;;;;;19.83;6.75;;;;;;;;;;5092503;28;20036;-86
2024/01/17 10:52:02;;;;;;;14.75;7.13;;;;;;;;;;5075948;28;20105;-84
2024/01/17 10:54:34;;;;;;;15.70;7.50;;;;;;;;;;5112711;28;20481;-84
2024/01/17 10:57:05;;;;;;;18.05;7.30;;;;;;;;;;5110212;28;20128;-85
2024/01/17 10:59:33;;;;;;;14.30;6.70;;;;;;;;;;5075533;28;20040;-85
2024/01/17 11:01:59;;;;;;;16.33;7.40;;;;;;;;;;5088181;28;20046;-85
2024/01/17 11:04:35;;;;;;;14.32;6.90;;;;;;;;;;5100817;28;20044;-87
2024/01/17 11:07:02;;;;;;;;;;;;;;;;;;5108043;28;20047;-86
2024/01/17 11:09:28;;;;;;;14.20;6.70;;;;;;;;;;5077821;28;19969;-85
2024/01/17 11:11:58;;;;;;;19.70;7.32;;;;;;;;;;5094649;28;20083;-84
2024/01/17 11:14:25;;;;;;;15.52;6.95;;;;;;;;;;5077000;28;20051;-84
2024/01/17 11:16:52;;;;;;;15.88;7.47;;;;;;;;;;5088349;28;20036;-84
2024/01/17 11:19:19;;;;;;;16.80;8.13;;;;;;;;;;5102315;28;20055;-84
2024/01/17 11:21:45;;;;;;;14.75;7.13;;;;;;;;;;5080785;28;20560;-84
2024/01/17 11:24:24;;;;;;;15.20;6.90;;;;;;;;;;5082186;28;20122;-84
2024/01/17 11:27:08;;;;;;;18.02;7.15;;;;;;;;;;5103051;28;20060;-84
2024/01/17 11:29:53;;;;;;;16.08;6.97;;;;;;;;;;5076922;28;20055;-85
2024/01/17 11:32:19;;;;;;;13.30;6.50;;;;;;;;;;5110471;28;20043;-83
2024/01/17 11:34:47;;;;;;;16.42;7.93;;;;;;;;;;5110455;28;20035;-83
2024/01/17 11:37:28;;;;;;;19.52;7.30;;;;;;;;;;5097348;28;20489;-84
2024/01/17 11:39:58;;;;;;;14.18;7.10;;;;;;;;;;5093811;28;20089;-83
2024/01/17 11:42:24;;;;;;;15.45;6.88;;;;;;;;;;5088771;28;20047;-83
2024/01/17 11:44:51;;;;;;;19.50;7.45;;;;;;;;;;5109561;28;20232;-83
2024/01/17 11:47:21;;;;;;;15.73;7.18;;;;;;;;;;5111257;28;20404;-83
2024/01/17 11:49:47;;;;;;;14.45;7.00;;;;;;;;;;5110466;28;20075;-84
2024/01/17 11:52:27;;;;;;;18.50;7.80;;;;;;;;;;5110566;28;20691;-84
2024/01/17 11:54:53;;;;;;;16.60;7.78;;;;;;;;;;5110276;28;20099;-83
2024/01/17 11:57:20;;;;;;;13.90;7.10;;;;;;;;;;5093639;28;20130;-82
2024/01/17 11:59:46;;;;;;;;;;;;;;;;;;5098935;28;20044;-84
2024/01/17 12:02:30;;;;;;;15.38;7.47;;;;;;;;;;5103670;28;19920;-82
2024/01/17 12:04:57;;;;;;;17.73;7.28;;;;;;;;;;5085052;28;20139;-83
2024/01/17 12:07:23;;;;;;;17.83;7.57;;;;;;;;;;5098702;28;20036;-83
2024/01/17 12:09:49;;;;;;;;;;;;;;;;;;5079109;28;20131;-84
2024/01/17 12:12:22;;;;;;;17.27;7.80;;;;;;;;;;5092709;28;19995;-83
2024/01/17 12:14:48;;;;;;;20.50;7.85;;;;;;;;;;5091317;28;20040;-85
2024/01/17 12:17:14;;;;;;;17.73;7.22;;;;;;;;;;5083391;28;20074;-83
2024/01/17 12:19:40;;;;;;;;;;;;;;;;;;5079841;28;20040;-83
2024/01/17 12:22:08;;;;;;;19.88;7.60;;;;;;;;;;5104199;28;19970;-84
2024/01/17 12:24:34;;;;;;;16.83;7.63;;;;;;;;;;5098032;28;20051;-84
2024/01/17 12:27:00;;;;;;;;;;;;;;;;;;5074330;28;20127;-84
2024/01/17 12:29:26;;;;;;;19.92;7.35;;;;;;;;;;5098307;28;20003;-84
2024/01/17 12:31:52;;;;;;;;;;;;;;;;;;5062128;28;20485;-82
2024/01/17 12:34:18;;;;;;;20.17;7.57;;;;;;;;;;5082902;28;19920;-84
2024/01/17 12:36:44;;;;;;;;;;;;;;;;;;5096717;28;20072;-88
2024/01/17 12:39:12;;;;;;;19.60;6.95;;;;;;;;;;5107447;28;19920;-84
2024/01/17 12:41:38;;;;;;;17.73;6.97;;;;;;;;;;5064585;28;20077;-86
2024/01/17 12:44:04;;;;;;;;;;;;;;;;;;5102900;28;20123;-84
2024/01/17 12:46:32;;;;;;;12.80;6.45;;;;;;;;;;5101032;28;20032;-84
2024/01/17 12:48:59;;;;;;;17.75;7.95;;;;;;;;;;5077882;28;20044;-84
2024/01/17 12:51:26;;;;;;;14.68;6.80;;;;;;;;;;5086859;28;20134;-85
2024/01/17 12:53:52;;;;;;;16.05;7.22;;;;;;;;;;5114678;28;20142;-86
2024/01/17 12:56:18;;;;;;;15.25;6.80;;;;;;;;;;5097273;28;20047;-84
2024/01/17 12:58:45;;;;;;;18.40;7.68;;;;;;;;;;5110681;28;20051;-86
2024/01/17 13:01:12;;;;;;;14.32;7.63;;;;;;;;;;5077362;28;20469;-86
2024/01/17 13:03:40;;;;;;;17.75;7.45;;;;;;;;;;5077936;28;20101;-84
2024/01/17 13:06:06;;;;;;;13.73;6.72;;;;;;;;;;5128925;27;20052;-84
2024/01/17 13:08:33;;;;;;;16.42;7.28;;;;;;;;;;5077760;28;20094;-84
2024/01/17 13:10:59;;;;;;;16.63;7.57;;;;;;;;;;5143535;27;20052;-84
2024/01/17 13:13:29;;;;;;;20.35;7.57;;;;;;;;;;5097626;28;20043;-86
2024/01/17 13:15:55;;;;;;;16.00;7.10;;;;;;;;;;5101635;28;20036;-84
2024/01/17 13:18:22;;;;;;;18.17;7.55;;;;;;;;;;5094421;28;20048;-84
2024/01/17 13:20:48;;;;;;;17.98;7.75;;;;;;;;;;5076877;28;20503;-84
2024/01/17 13:23:15;;;;;;;17.92;7.28;;;;;;;;;;5077220;28;20378;-84
2024/01/17 13:25:41;;;;;;;16.48;7.15;;;;;;;;;;5094265;28;20051;-85
2024/01/17 13:28:11;;;;;;;15.27;7.15;;;;;;;;;;5093305;28;20051;-85
2024/01/17 13:30:38;;;;;;;16.35;6.78;;;;;;;;;;5080836;28;20122;-84
2024/01/17 13:33:07;;;;;;;17.75;7.35;;;;;;;;;;5094020;28;20640;-85
2024/01/17 13:35:34;;;;;;;17.52;7.13;;;;;;;;;;5096605;28;20043;-87
2024/01/17 13:38:01;;;;;;;17.77;7.07;;;;;;;;;;5093888;28;20058;-81
2024/01/17 13:40:27;;;;;;;21.02;8.02;;;;;;;;;;5096806;28;20527;-85
2024/01/17 13:42:54;;;;;;;16.42;7.90;;;;;;;;;;5096073;28;20078;-85
2024/01/17 13:45:23;;;;;;;19.95;7.55;;;;;;;;;;5113372;27;20055;-85
2024/01/17 13:47:50;;;;;;;17.35;7.47;;;;;;;;;;5090942;28;20066;-84
2024/01/17 13:50:20;;;;;;;18.23;7.13;;;;;;;;;;5096340;28;20508;-85
2024/01/17 13:52:50;;;;;;;18.75;8.23;;;;;;;;;;5094475;28;20492;-87
2024/01/17 13:55:17;;;;;;;16.70;7.18;;;;;;;;;;5109662;27;20052;-86
2024/01/17 13:57:44;;;;;;;16.60;7.95;;;;;;;;;;5112983;27;20051;-85
2024/01/17 14:00:09;;;;;;;;;;;;;;;;;;5096415;28;20047;-88
2024/01/17 14:02:35;;;;;;;16.55;6.95;;;;;;;;;;5112501;28;19920;-86
2024/01/17 14:05:02;;;;;;;;;;;;;;;;;;5113218;28;20039;-86
2024/01/17 14:07:28;;;;;;;18.80;7.82;;;;;;;;;;5110099;28;19971;-86
2024/01/17 14:09:54;;;;;;;;;;;;;;;;;;5095372;28;20048;-86
2024/01/17 14:12:20;;;;;;;16.27;7.78;;;;;;;;;;5112281;28;19923;-87
2024/01/17 14:14:46;;;;;;;;;;;;;;;;;;5110010;27;20051;-87
2024/01/17 14:17:13;;;;;;;16.58;7.65;;;;;;;;;;5110742;28;19920;-87
2024/01/17 14:19:39;;;;;;;16.48;7.57;;;;;;;;;;5095788;28;20507;-86
2024/01/17 14:22:06;;;;;;;20.40;8.98;;;;;;;;;;5112438;28;20035;-87
2024/01/17 14:24:32;;;;;;;17.15;7.95;;;;;;;;;;5095532;28;20473;-87
2024/01/17 14:26:58;;;;;;;;;;;;;;;;;;5095447;28;20047;-87
2024/01/17 14:29:24;;;;;;;20.23;8.30;;;;;;;;;;5095033;28;20269;-87
2024/01/17 14:31:51;;;;;;;;;;;;;;;;;;5079323;28;20135;-88
2024/01/17 14:34:20;;;;;;;19.17;8.25;;;;;;;;;;5094599;28;19920;-86
2024/01/17 14:36:46;;;;;;;23.33;8.02;;;;;;;;;;5137566;27;20508;-86
2024/01/17 14:39:13;;;;;;;;;;;;;;;;;;5094659;28;20096;-87
2024/01/17 14:41:39;;;;;;;15.80;7.97;;;;;;;;;;5094062;28;19919;-86
2024/01/17 14:44:05;;;;;;;16.17;7.90;;;;;;;;;;5110321;28;20050;-86
2024/01/17 14:46:34;;;;;;;;;;;;;;;;;;5095286;28;20039;-89
2024/01/17 14:49:01;;;;;;;17.80;8.45;;;;;;;;;;5111267;28;19969;-87
2024/01/17 14:51:27;;;;;;;17.92;8.60;;;;;;;;;;5112152;28;20043;-89
2024/01/17 14:53:53;;;;;;;;;;;;;;;;;;5077215;28;20047;-86
2024/01/17 14:56:19;;;;;;;16.10;7.78;;;;;;;;;;5110213;28;20364;-87